Flight Track Log - Related Links

Times and Time Zones

All times are in EDT time to prevent confusion due to time zone crossing. See the N983CA flight status page for this flight to view local times or setup timezone preferences in your user account.

Time Position Orientation Groundspeed Altitude Reporting Facility
EDT Latitude Longitude Course Direction KTS MPH feet Rate Location/Type
Wed 02:05:06 PM 37.6328 -122.3622 North 150 173 1,300  Level Oakland Center
Wed 02:06:07 PM 37.6864 -122.3294 26° Northeast 184 212 4,700 3,268 Climbing Oakland Center
Wed 02:07:09 PM 37.7367 -122.3089 18° North 196 226 8,000 3,024 Climbing Oakland Center
Wed 02:08:00 PM 37.6320 -122.4170 120° Southeast  Level FlightAware Approximate
Wed 02:08:10 PM 37.7947 -122.3042 North 210 242 10,900  Level Oakland Center
Wed 02:09:00 PM 37.6710 -122.3606 North  Level FlightAware Approximate
Wed 02:09:11 PM 37.8589 -122.3031 North 226 260 12,800  Level Oakland Center
Wed 02:10:00 PM 37.7692 -122.3500 North  Level FlightAware Approximate
Wed 02:10:13 PM 37.9297 -122.3125 354° North 256 295 15,000  Level Oakland Center
Wed 02:11:14 PM 38.0017 -122.3233 353° North 262 302 17,000 1,951 Climbing Oakland Center
Wed 02:12:16 PM 38.0928 -122.3344 355° North 274 315 19,000 1,756 Climbing Oakland Center
Wed 02:13:17 PM 38.1697 -122.3458 353° North 279 321 20,600 1,561 Climbing Oakland Center
Wed 02:14:19 PM 38.2503 -122.3569 354° North 288 331 22,200 1,463 Climbing Oakland Center
Wed 02:15:20 PM 38.3328 -122.3681 354° North 299 344 23,600 1,463 Climbing Oakland Center
Wed 02:16:22 PM 38.4172 -122.3786 354° North 306 352 25,200 1,366 Climbing Oakland Center
Wed 02:17:23 PM 38.5011 -122.3900 354° North 306 352 26,400 1,268 Climbing Oakland Center
Wed 02:18:25 PM 38.5864 -122.4036 353° North 311 358 27,800 1,268 Climbing Oakland Center
Wed 02:19:26 PM 38.6714 -122.4156 354° North 309 356 29,000 976 Climbing Oakland Center
Wed 02:20:28 PM 38.7742 -122.4297 354° North 309 356 29,800 732 Climbing Oakland Center
Wed 02:21:29 PM 38.8600 -122.4414 354° North 310 357 30,500 634 Climbing Oakland Center
Wed 02:22:31 PM 38.9483 -122.4528 354° North 315 362 31,100 537 Climbing Oakland Center
Wed 02:23:32 PM 39.0375 -122.4283 12° North 327 376 31,600 439 Climbing Oakland Center
Wed 02:24:34 PM 39.1283 -122.4042 12° North 331 381 32,000 195 Climbing Oakland Center
Wed 02:25:35 PM 39.2217 -122.3825 10° North 340 391 32,000  Level Oakland Center
Wed 02:26:37 PM 39.3181 -122.3900 357° North 347 399 32,000  Level Oakland Center
Wed 02:27:38 PM 39.4158 -122.3986 356° North 351 404 32,000  Level Oakland Center
Wed 02:28:40 PM 39.5333 -122.4119 355° North 361 415 32,000  Level Oakland Center
Wed 02:29:41 PM 39.6347 -122.4217 356° North 366 421 32,000  Level Oakland Center
Wed 02:30:43 PM 39.7361 -122.4322 355° North 369 425 32,000  Level Oakland Center
Wed 02:31:44 PM 39.8386 -122.4417 356° North 371 427 32,000  Level Oakland Center
Wed 02:32:45 PM 39.9411 -122.4522 355° North 369 425 32,000  Level Oakland Center
Wed 02:33:47 PM 40.0436 -122.4633 355° North 367 422 32,000  Level Oakland Center
Wed 02:34:48 PM 40.1481 -122.4747 355° North 369 425 32,000  Level Oakland Center
Wed 02:35:50 PM 40.2511 -122.4842 356° North 365 420 32,000  Level Oakland Center
Wed 02:36:51 PM 40.3511 -122.4939 356° North 357 411 32,000  Level Oakland Center
Wed 02:37:53 PM 40.4511 -122.5039 356° North 359 413 32,000  Level Oakland Center
Wed 02:38:54 PM 40.5506 -122.5133 356° North 357 411 32,000  Level Oakland Center
Wed 02:39:56 PM 40.6506 -122.5239 355° North 358 412 32,000  Level Oakland Center
Wed 02:40:57 PM 40.7697 -122.5364 355° North 358 412 32,000  Level Oakland Center
Wed 02:41:58 PM 40.8692 -122.5464 356° North 358 412 32,000  Level Oakland Center
Wed 02:43:00 PM 40.9689 -122.5553 356° North 358 412 32,000  Level Oakland Center
Wed 02:44:01 PM 41.0694 -122.5683 354° North 363 418 32,000  Level Oakland Center
Wed 02:45:02 PM 41.1697 -122.5778 356° North 363 418 32,000  Level Oakland Center
Wed 02:46:04 PM 41.2703 -122.5886 355° North 365 420 32,000  Level Oakland Center
Wed 02:47:05 PM 41.3675 -122.5986 356° North 361 415 32,000  Level Oakland Center
Wed 02:47:27 PM 41.4106 -122.6033 355° North 364 419 32,000  Level Seattle Center
Wed 02:48:28 PM 41.5094 -122.6139 355° North 366 421 32,000  Level Seattle Center
Wed 02:49:29 PM 41.6108 -122.6258 355° North 365 420 32,000  Level Seattle Center
Wed 02:50:30 PM 41.7111 -122.6356 356° North 362 417 32,000  Level Seattle Center
Wed 02:51:31 PM 41.8128 -122.6472 355° North 363 418 32,000  Level Seattle Center
Wed 02:52:32 PM 41.9150 -122.6567 356° North 366 421 32,000  Level Seattle Center
Wed 02:53:33 PM 42.0178 -122.6681 355° North 368 423 32,000  Level Seattle Center
Wed 02:54:34 PM 42.1197 -122.6789 355° North 367 422 32,000  Level Seattle Center
Wed 02:55:35 PM 42.2222 -122.6906 355° North 368 423 32,000  Level Seattle Center
Wed 02:56:37 PM 42.3447 -122.7036 355° North 365 420 32,000  Level Seattle Center
Wed 02:57:38 PM 42.4475 -122.7139 356° North 368 423 32,000  Level Seattle Center
Wed 02:58:39 PM 42.5508 -122.7253 355° North 369 425 32,000  Level Seattle Center
Wed 02:59:40 PM 42.6536 -122.7369 355° North 370 426 32,000  Level Seattle Center
Wed 03:00:41 PM 42.7533 -122.7472 356° North 370 426 32,000  Level Seattle Center
Wed 03:01:42 PM 42.8556 -122.7597 355° North 369 425 32,000  Level Seattle Center
Wed 03:02:43 PM 42.9575 -122.7706 356° North 368 423 32,000  Level Seattle Center
Wed 03:03:44 PM 43.0589 -122.7828 355° North 367 422 32,000  Level Seattle Center
Wed 03:04:45 PM 43.1617 -122.7928 356° North 370 426 32,000  Level Seattle Center
Wed 03:05:46 PM 43.2628 -122.8056 355° North 367 422 32,000  Level Seattle Center
Wed 03:06:47 PM 43.3856 -122.8194 355° North 368 423 32,000  Level Seattle Center
Wed 03:07:48 PM 43.4875 -122.8308 355° North 368 423 32,000  Level Seattle Center
Wed 03:08:49 PM 43.5897 -122.8422 355° North 370 426 32,000  Level Seattle Center
Wed 03:09:50 PM 43.6917 -122.8539 355° North 369 425 32,000  Level Seattle Center
Wed 03:10:51 PM 43.7942 -122.8650 356° North 371 427 32,000  Level Seattle Center
Wed 03:11:52 PM 43.8969 -122.8767 355° North 373 429 32,000  Level Seattle Center
Wed 03:12:53 PM 43.9989 -122.8892 355° North 370 426 32,000  Level Seattle Center
Wed 03:13:54 PM 44.1011 -122.9011 355° North 371 427 32,000  Level Seattle Center
Wed 03:14:55 PM 44.2028 -122.9125 355° North 370 426 32,000  Level Seattle Center
Wed 03:15:56 PM 44.3050 -122.9242 355° North 373 429 32,000  Level Seattle Center
Wed 03:16:57 PM 44.4236 -122.9381 355° North 371 427 32,000  Level Seattle Center
Wed 03:17:58 PM 44.5272 -122.9503 355° North 375 432 32,000  Level Seattle Center
Wed 03:18:59 PM 44.6300 -122.9625 355° North 375 432 32,000  Level Seattle Center
Wed 03:20:00 PM 44.7328 -122.9753 355° North 373 429 32,000  Level Seattle Center
Wed 03:21:01 PM 44.8350 -122.9869 355° North 373 429 32,000  Level Seattle Center
Wed 03:22:02 PM 44.9378 -123.0000 355° North 374 430 32,000  Level Seattle Center
Wed 03:23:03 PM 45.0406 -123.0128 355° North 375 432 32,000  Level Seattle Center
Wed 03:24:04 PM 45.1436 -123.0256 355° North 376 433 32,000  Level Seattle Center
Wed 03:25:05 PM 45.2675 -123.0394 355° North 375 432 32,000  Level Seattle Center
Wed 03:26:06 PM 45.3711 -123.0511 355° North 376 433 32,000  Level Seattle Center
Wed 03:27:07 PM 45.4753 -123.0647 355° North 377 434 32,000  Level Seattle Center
Wed 03:28:08 PM 45.5786 -123.0775 355° North 376 433 32,000  Level Seattle Center
Wed 03:29:09 PM 45.6828 -123.0906 355° North 377 434 32,000  Level Seattle Center
Wed 03:30:10 PM 45.7861 -123.1033 355° North 375 432 32,000  Level Seattle Center
Wed 03:31:11 PM 45.8906 -123.1150 356° North 378 435 32,000  Level Seattle Center
Wed 03:32:12 PM 45.9956 -123.1300 354° North 379 436 32,000  Level Seattle Center
Wed 03:33:13 PM 46.1000 -123.1425 355° North 378 435 32,000  Level Seattle Center
Wed 03:34:14 PM 46.2042 -123.1550 355° North 376 433 32,000  Level Seattle Center
Wed 03:35:15 PM 46.3289 -123.1719 355° North 377 434 32,000  Level Seattle Center
Wed 03:36:16 PM 46.4336 -123.1833 356° North 378 435 32,000  Level Seattle Center
Wed 03:37:17 PM 46.5308 -123.1967 355° North 376 433 32,000  Level Seattle Center
Wed 03:38:18 PM 46.6344 -123.2097 355° North 377 434 32,000  Level Seattle Center
Wed 03:39:19 PM 46.7381 -123.2231 355° North 377 434 32,000  Level Seattle Center
Wed 03:40:20 PM 46.8417 -123.2369 355° North 377 434 32,000  Level Seattle Center
Wed 03:41:21 PM 46.9447 -123.2494 355° North 376 433 32,000  Level Seattle Center
Wed 03:42:22 PM 47.0689 -123.2653 355° North 377 434 32,000  Level Seattle Center
Wed 03:43:23 PM 47.1717 -123.2767 356° North 376 433 32,000  Level Seattle Center
Wed 03:44:24 PM 47.2744 -123.2908 355° North 374 430 32,000  Level Seattle Center
Wed 03:45:25 PM 47.3781 -123.3039 355° North 374 430 32,000  Level Seattle Center
Wed 03:46:26 PM 47.4817 -123.3181 355° North 376 433 32,000 -689 Level Seattle Center
Wed 03:47:27 PM 47.5853 -123.3319 355° North 375 432 30,600 -1,721 Descending Seattle Center
Wed 03:48:28 PM 47.6936 -123.3472 355° North 386 444 28,500 -2,066 Descending Seattle Center
Wed 03:49:29 PM 47.8064 -123.3597 356° North 401 461 26,400 -2,164 Descending Seattle Center
Wed 03:50:30 PM 47.9147 -123.3764 354° North 397 457 24,100 -2,508 Descending Seattle Center
Wed 03:51:31 PM 48.0419 -123.3922 355° North 386 444 21,300 -2,508 Descending Seattle Center
Wed 03:52:32 PM 48.1361 -123.4056 355° North 377 434 19,000 -2,459 Descending Seattle Center
Wed 03:53:33 PM 48.2306 -123.4325 349° North 351 404 16,300 -2,803 Descending Seattle Center
Wed 03:54:34 PM 48.3186 -123.4686 345° North 331 381 13,300 -2,179 Descending Seattle Center
Wed 03:56:32 PM 48.4333 -123.5500 335° Northwest 210 242 9,800 -1,989 Descending Vancouver Center
Wed 03:57:32 PM 48.4833 -123.5500 360° North 210 242 7,400 -2,350 Descending Vancouver Center
Wed 03:58:32 PM 48.5500 -123.5500 360° North 200 230 5,100 -2,000 Descending Vancouver Center
Wed 03:59:32 PM 48.6000 -123.5500 360° North 200 230 3,400 -1,700 Descending Vancouver Center

Login

Don't have an account? Register now (free) for customized features, flight alerts, and more!